sensor_id;sensor_type;location;lat;lon;timestamp;P1;durP1;ratioP1;P2;durP2;ratioP2
61709;SDS011;47633;51.494;5.386;2023-01-29T00:02:16;11.05;;;5.25;;
61709;SDS011;47633;51.494;5.386;2023-01-29T00:04:41;8.38;;;5.30;;
61709;SDS011;47633;51.494;5.386;2023-01-29T00:07:07;9.65;;;5.43;;
61709;SDS011;47633;51.494;5.386;2023-01-29T00:09:32;9.27;;;5.20;;
61709;SDS011;47633;51.494;5.386;2023-01-29T00:11:58;7.85;;;5.13;;
61709;SDS011;47633;51.494;5.386;2023-01-29T00:14:23;8.60;;;5.57;;
61709;SDS011;47633;51.494;5.386;2023-01-29T00:16:51;10.80;;;5.13;;
61709;SDS011;47633;51.494;5.386;2023-01-29T00:19:16;8.25;;;5.57;;
61709;SDS011;47633;51.494;5.386;2023-01-29T00:21:41;8.85;;;6.32;;
61709;SDS011;47633;51.494;5.386;2023-01-29T00:24:07;7.70;;;5.65;;
61709;SDS011;47633;51.494;5.386;2023-01-29T00:26:32;11.80;;;5.68;;
61709;SDS011;47633;51.494;5.386;2023-01-29T00:28:59;8.93;;;5.65;;
61709;SDS011;47633;51.494;5.386;2023-01-29T00:31:26;10.55;;;6.18;;
61709;SDS011;47633;51.494;5.386;2023-01-29T00:33:51;12.27;;;5.97;;
61709;SDS011;47633;51.494;5.386;2023-01-29T00:36:17;11.20;;;6.10;;
61709;SDS011;47633;51.494;5.386;2023-01-29T00:38:44;9.05;;;5.65;;
61709;SDS011;47633;51.494;5.386;2023-01-29T00:44:02;10.45;;;5.25;;
61709;SDS011;47633;51.494;5.386;2023-01-29T00:46:46;10.63;;;5.88;;
61709;SDS011;47633;51.494;5.386;2023-01-29T00:49:11;9.27;;;6.03;;
61709;SDS011;47633;51.494;5.386;2023-01-29T00:51:37;8.40;;;5.45;;
61709;SDS011;47633;51.494;5.386;2023-01-29T00:54:03;13.50;;;5.57;;
61709;SDS011;47633;51.494;5.386;2023-01-29T00:56:31;9.98;;;5.80;;
61709;SDS011;47633;51.494;5.386;2023-01-29T00:58:57;8.48;;;5.50;;
61709;SDS011;47633;51.494;5.386;2023-01-29T01:01:23;10.30;;;5.47;;
61709;SDS011;47633;51.494;5.386;2023-01-29T01:04:07;11.43;;;5.93;;
61709;SDS011;47633;51.494;5.386;2023-01-29T01:06:35;10.20;;;6.10;;
61709;SDS011;47633;51.494;5.386;2023-01-29T01:09:02;9.18;;;5.22;;
61709;SDS011;47633;51.494;5.386;2023-01-29T01:11:47;8.27;;;5.45;;
61709;SDS011;47633;51.494;5.386;2023-01-29T01:14:12;9.88;;;5.47;;
61709;SDS011;47633;51.494;5.386;2023-01-29T01:16:38;9.48;;;5.68;;
61709;SDS011;47633;51.494;5.386;2023-01-29T01:19:03;8.85;;;5.57;;
61709;SDS011;47633;51.494;5.386;2023-01-29T01:21:29;8.57;;;5.80;;
61709;SDS011;47633;51.494;5.386;2023-01-29T01:23:54;9.60;;;5.60;;
61709;SDS011;47633;51.494;5.386;2023-01-29T01:26:19;8.13;;;5.80;;
61709;SDS011;47633;51.494;5.386;2023-01-29T01:28:44;10.75;;;5.97;;
61709;SDS011;47633;51.494;5.386;2023-01-29T01:31:10;8.90;;;5.65;;
61709;SDS011;47633;51.494;5.386;2023-01-29T01:33:37;9.32;;;5.43;;
61709;SDS011;47633;51.494;5.386;2023-01-29T01:36:03;9.15;;;5.70;;
61709;SDS011;47633;51.494;5.386;2023-01-29T01:38:33;10.50;;;6.00;;
61709;SDS011;47633;51.494;5.386;2023-01-29T01:40:58;9.18;;;5.75;;
61709;SDS011;47633;51.494;5.386;2023-01-29T01:43:23;9.27;;;5.65;;
61709;SDS011;47633;51.494;5.386;2023-01-29T01:45:49;9.82;;;6.07;;
61709;SDS011;47633;51.494;5.386;2023-01-29T01:48:16;11.32;;;5.50;;
61709;SDS011;47633;51.494;5.386;2023-01-29T01:50:52;9.18;;;5.82;;
61709;SDS011;47633;51.494;5.386;2023-01-29T01:53:21;9.32;;;5.97;;
61709;SDS011;47633;51.494;5.386;2023-01-29T01:56:00;12.40;;;6.35;;
61709;SDS011;47633;51.494;5.386;2023-01-29T01:58:34;9.60;;;6.05;;
61709;SDS011;47633;51.494;5.386;2023-01-29T02:01:03;9.75;;;5.57;;
61709;SDS011;47633;51.494;5.386;2023-01-29T02:03:32;10.57;;;6.43;;
61709;SDS011;47633;51.494;5.386;2023-01-29T02:06:20;9.27;;;6.40;;
61709;SDS011;47633;51.494;5.386;2023-01-29T02:09:05;12.82;;;6.50;;
61709;SDS011;47633;51.494;5.386;2023-01-29T02:11:54;9.18;;;6.13;;
61709;SDS011;47633;51.494;5.386;2023-01-29T02:14:20;9.45;;;6.35;;
61709;SDS011;47633;51.494;5.386;2023-01-29T02:16:46;9.35;;;6.35;;
61709;SDS011;47633;51.494;5.386;2023-01-29T02:19:33;9.82;;;6.13;;
61709;SDS011;47633;51.494;5.386;2023-01-29T02:22:11;10.82;;;6.32;;
61709;SDS011;47633;51.494;5.386;2023-01-29T02:36:40;11.32;;;6.45;;
61709;SDS011;47633;51.494;5.386;2023-01-29T02:39:14;12.50;;;6.93;;
61709;SDS011;47633;51.494;5.386;2023-01-29T02:44:59;12.68;;;7.05;;
61709;SDS011;47633;51.494;5.386;2023-01-29T02:50:41;14.80;;;6.68;;
61709;SDS011;47633;51.494;5.386;2023-01-29T02:56:10;10.60;;;7.20;;
61709;SDS011;47633;51.494;5.386;2023-01-29T02:58:41;10.60;;;6.90;;
61709;SDS011;47633;51.494;5.386;2023-01-29T03:01:14;12.50;;;6.70;;
61709;SDS011;47633;51.494;5.386;2023-01-29T03:03:46;14.10;;;7.13;;
61709;SDS011;47633;51.494;5.386;2023-01-29T03:06:17;10.60;;;6.10;;
61709;SDS011;47633;51.494;5.386;2023-01-29T03:08:51;10.75;;;6.85;;
61709;SDS011;47633;51.494;5.386;2023-01-29T03:11:21;10.35;;;6.65;;
61709;SDS011;47633;51.494;5.386;2023-01-29T03:13:48;14.48;;;7.38;;
61709;SDS011;47633;51.494;5.386;2023-01-29T03:19:30;9.67;;;6.70;;
61709;SDS011;47633;51.494;5.386;2023-01-29T03:22:01;11.68;;;7.38;;
61709;SDS011;47633;51.494;5.386;2023-01-29T03:24:37;10.30;;;6.70;;
61709;SDS011;47633;51.494;5.386;2023-01-29T03:27:36;12.15;;;7.05;;
61709;SDS011;47633;51.494;5.386;2023-01-29T03:30:26;13.85;;;7.47;;
61709;SDS011;47633;51.494;5.386;2023-01-29T03:33:13;10.48;;;6.90;;
61709;SDS011;47633;51.494;5.386;2023-01-29T03:35:45;9.73;;;6.00;;
61709;SDS011;47633;51.494;5.386;2023-01-29T03:38:33;10.35;;;6.60;;
61709;SDS011;47633;51.494;5.386;2023-01-29T03:41:02;11.07;;;6.57;;
61709;SDS011;47633;51.494;5.386;2023-01-29T03:46:21;10.55;;;6.82;;
61709;SDS011;47633;51.494;5.386;2023-01-29T03:53:56;10.88;;;6.30;;
61709;SDS011;47633;51.494;5.386;2023-01-29T04:04:23;11.00;;;6.32;;
61709;SDS011;47633;51.494;5.386;2023-01-29T04:06:52;10.32;;;6.18;;
61709;SDS011;47633;51.494;5.386;2023-01-29T04:09:23;10.80;;;6.80;;
61709;SDS011;47633;51.494;5.386;2023-01-29T04:11:56;9.75;;;6.35;;
61709;SDS011;47633;51.494;5.386;2023-01-29T04:14:27;10.45;;;6.38;;
61709;SDS011;47633;51.494;5.386;2023-01-29T04:16:54;11.15;;;6.10;;
61709;SDS011;47633;51.494;5.386;2023-01-29T04:19:23;10.15;;;6.25;;
61709;SDS011;47633;51.494;5.386;2023-01-29T04:21:49;10.75;;;6.10;;
61709;SDS011;47633;51.494;5.386;2023-01-29T04:26:57;9.23;;;6.37;;
61709;SDS011;47633;51.494;5.386;2023-01-29T04:32:29;10.07;;;6.85;;
61709;SDS011;47633;51.494;5.386;2023-01-29T04:40:15;9.88;;;6.53;;
61709;SDS011;47633;51.494;5.386;2023-01-29T04:42:47;10.38;;;6.13;;
61709;SDS011;47633;51.494;5.386;2023-01-29T04:45:23;9.13;;;5.95;;
61709;SDS011;47633;51.494;5.386;2023-01-29T04:50:52;11.60;;;7.00;;
61709;SDS011;47633;51.494;5.386;2023-01-29T04:53:43;12.40;;;8.18;;
61709;SDS011;47633;51.494;5.386;2023-01-29T04:59:06;10.05;;;6.55;;
61709;SDS011;47633;51.494;5.386;2023-01-29T05:01:36;10.38;;;6.55;;
61709;SDS011;47633;51.494;5.386;2023-01-29T05:04:07;9.70;;;6.50;;
61709;SDS011;47633;51.494;5.386;2023-01-29T05:09:03;8.95;;;6.30;;
61709;SDS011;47633;51.494;5.386;2023-01-29T05:11:29;9.05;;;6.22;;
61709;SDS011;47633;51.494;5.386;2023-01-29T05:13:56;11.77;;;6.47;;
61709;SDS011;47633;51.494;5.386;2023-01-29T05:16:23;10.23;;;7.00;;
61709;SDS011;47633;51.494;5.386;2023-01-29T05:18:52;10.30;;;6.57;;
61709;SDS011;47633;51.494;5.386;2023-01-29T05:21:17;11.20;;;6.43;;
61709;SDS011;47633;51.494;5.386;2023-01-29T05:23:44;8.77;;;6.53;;
61709;SDS011;47633;51.494;5.386;2023-01-29T05:26:21;9.85;;;6.55;;
61709;SDS011;47633;51.494;5.386;2023-01-29T05:29:05;10.02;;;6.68;;
61709;SDS011;47633;51.494;5.386;2023-01-29T05:31:31;9.18;;;5.97;;
61709;SDS011;47633;51.494;5.386;2023-01-29T05:33:56;13.02;;;7.47;;
61709;SDS011;47633;51.494;5.386;2023-01-29T05:36:21;10.35;;;6.50;;
61709;SDS011;47633;51.494;5.386;2023-01-29T05:38:47;11.45;;;5.88;;
61709;SDS011;47633;51.494;5.386;2023-01-29T05:41:12;9.63;;;5.50;;
61709;SDS011;47633;51.494;5.386;2023-01-29T05:43:37;7.90;;;5.13;;
61709;SDS011;47633;51.494;5.386;2023-01-29T05:46:02;7.27;;;4.87;;
61709;SDS011;47633;51.494;5.386;2023-01-29T05:48:28;9.45;;;4.60;;
61709;SDS011;47633;51.494;5.386;2023-01-29T05:51:01;10.52;;;4.68;;
61709;SDS011;47633;51.494;5.386;2023-01-29T05:53:28;7.78;;;4.72;;
61709;SDS011;47633;51.494;5.386;2023-01-29T05:55:54;9.48;;;4.88;;
61709;SDS011;47633;51.494;5.386;2023-01-29T05:58:21;7.13;;;4.55;;
61709;SDS011;47633;51.494;5.386;2023-01-29T06:00:47;7.47;;;4.70;;
61709;SDS011;47633;51.494;5.386;2023-01-29T06:03:12;8.95;;;4.53;;
61709;SDS011;47633;51.494;5.386;2023-01-29T06:05:37;7.07;;;4.38;;
61709;SDS011;47633;51.494;5.386;2023-01-29T06:08:03;7.93;;;4.35;;
61709;SDS011;47633;51.494;5.386;2023-01-29T06:10:29;7.38;;;4.22;;
61709;SDS011;47633;51.494;5.386;2023-01-29T06:12:55;7.00;;;4.43;;
61709;SDS011;47633;51.494;5.386;2023-01-29T06:15:20;8.07;;;4.10;;
61709;SDS011;47633;51.494;5.386;2023-01-29T06:17:45;7.55;;;4.63;;
61709;SDS011;47633;51.494;5.386;2023-01-29T06:20:11;7.15;;;4.00;;
61709;SDS011;47633;51.494;5.386;2023-01-29T06:22:36;6.93;;;4.18;;
61709;SDS011;47633;51.494;5.386;2023-01-29T06:25:01;8.68;;;4.47;;
61709;SDS011;47633;51.494;5.386;2023-01-29T06:27:27;6.30;;;4.07;;
61709;SDS011;47633;51.494;5.386;2023-01-29T06:29:52;6.55;;;4.28;;
61709;SDS011;47633;51.494;5.386;2023-01-29T06:32:18;6.38;;;4.07;;
61709;SDS011;47633;51.494;5.386;2023-01-29T06:34:43;8.35;;;4.03;;
61709;SDS011;47633;51.494;5.386;2023-01-29T06:37:08;8.02;;;4.25;;
61709;SDS011;47633;51.494;5.386;2023-01-29T06:39:34;7.18;;;4.40;;
61709;SDS011;47633;51.494;5.386;2023-01-29T06:41:59;7.30;;;4.25;;
61709;SDS011;47633;51.494;5.386;2023-01-29T06:44:24;5.68;;;4.18;;
61709;SDS011;47633;51.494;5.386;2023-01-29T06:46:50;7.68;;;3.88;;
61709;SDS011;47633;51.494;5.386;2023-01-29T06:49:15;6.30;;;3.90;;
61709;SDS011;47633;51.494;5.386;2023-01-29T06:51:40;8.23;;;4.43;;
61709;SDS011;47633;51.494;5.386;2023-01-29T06:54:06;7.78;;;4.32;;
61709;SDS011;47633;51.494;5.386;2023-01-29T06:56:32;7.28;;;4.78;;
61709;SDS011;47633;51.494;5.386;2023-01-29T06:58:58;7.53;;;4.35;;
61709;SDS011;47633;51.494;5.386;2023-01-29T07:01:25;7.47;;;4.60;;
61709;SDS011;47633;51.494;5.386;2023-01-29T07:03:50;7.25;;;4.13;;
61709;SDS011;47633;51.494;5.386;2023-01-29T07:06:15;7.25;;;4.50;;
61709;SDS011;47633;51.494;5.386;2023-01-29T07:08:41;6.80;;;4.30;;
61709;SDS011;47633;51.494;5.386;2023-01-29T07:11:06;6.27;;;4.20;;
61709;SDS011;47633;51.494;5.386;2023-01-29T07:13:32;7.68;;;4.45;;
61709;SDS011;47633;51.494;5.386;2023-01-29T07:16:01;7.70;;;4.47;;
61709;SDS011;47633;51.494;5.386;2023-01-29T07:18:27;7.20;;;4.15;;
61709;SDS011;47633;51.494;5.386;2023-01-29T07:20:53;7.40;;;4.25;;
61709;SDS011;47633;51.494;5.386;2023-01-29T07:23:19;6.65;;;4.05;;
61709;SDS011;47633;51.494;5.386;2023-01-29T07:25:44;7.00;;;3.80;;
61709;SDS011;47633;51.494;5.386;2023-01-29T07:28:10;6.82;;;4.05;;
61709;SDS011;47633;51.494;5.386;2023-01-29T07:30:35;6.05;;;3.78;;
61709;SDS011;47633;51.494;5.386;2023-01-29T07:33:01;8.02;;;4.53;;
61709;SDS011;47633;51.494;5.386;2023-01-29T07:35:34;10.13;;;4.80;;
61709;SDS011;47633;51.494;5.386;2023-01-29T07:38:01;8.80;;;4.70;;
61709;SDS011;47633;51.494;5.386;2023-01-29T07:40:26;7.15;;;4.40;;
61709;SDS011;47633;51.494;5.386;2023-01-29T07:42:56;8.45;;;4.85;;
61709;SDS011;47633;51.494;5.386;2023-01-29T07:45:22;8.40;;;4.72;;
61709;SDS011;47633;51.494;5.386;2023-01-29T07:47:50;7.60;;;4.70;;
61709;SDS011;47633;51.494;5.386;2023-01-29T07:50:16;7.00;;;4.85;;
61709;SDS011;47633;51.494;5.386;2023-01-29T07:52:42;7.38;;;5.07;;
61709;SDS011;47633;51.494;5.386;2023-01-29T07:55:07;7.05;;;4.47;;
61709;SDS011;47633;51.494;5.386;2023-01-29T07:57:33;7.18;;;4.35;;
61709;SDS011;47633;51.494;5.386;2023-01-29T07:59:58;8.70;;;4.07;;
61709;SDS011;47633;51.494;5.386;2023-01-29T08:02:23;7.67;;;4.67;;
61709;SDS011;47633;51.494;5.386;2023-01-29T08:04:49;7.28;;;4.32;;
61709;SDS011;47633;51.494;5.386;2023-01-29T08:07:14;6.15;;;3.85;;
61709;SDS011;47633;51.494;5.386;2023-01-29T08:09:39;8.85;;;4.60;;
61709;SDS011;47633;51.494;5.386;2023-01-29T08:12:04;9.88;;;4.72;;
61709;SDS011;47633;51.494;5.386;2023-01-29T08:14:30;8.48;;;4.65;;
61709;SDS011;47633;51.494;5.386;2023-01-29T08:16:55;7.20;;;4.03;;
61709;SDS011;47633;51.494;5.386;2023-01-29T08:19:20;6.85;;;4.38;;
61709;SDS011;47633;51.494;5.386;2023-01-29T08:21:46;7.38;;;4.60;;
61709;SDS011;47633;51.494;5.386;2023-01-29T08:24:11;10.60;;;4.60;;
61709;SDS011;47633;51.494;5.386;2023-01-29T08:26:36;8.88;;;4.82;;
61709;SDS011;47633;51.494;5.386;2023-01-29T08:29:01;8.55;;;4.70;;
61709;SDS011;47633;51.494;5.386;2023-01-29T08:31:27;8.25;;;4.45;;
61709;SDS011;47633;51.494;5.386;2023-01-29T08:33:52;7.18;;;4.80;;
61709;SDS011;47633;51.494;5.386;2023-01-29T08:36:19;9.45;;;4.63;;
61709;SDS011;47633;51.494;5.386;2023-01-29T08:38:44;8.32;;;4.60;;
61709;SDS011;47633;51.494;5.386;2023-01-29T08:41:09;7.18;;;4.82;;
61709;SDS011;47633;51.494;5.386;2023-01-29T08:43:35;8.33;;;5.27;;
61709;SDS011;47633;51.494;5.386;2023-01-29T08:46:03;8.75;;;5.00;;
61709;SDS011;47633;51.494;5.386;2023-01-29T08:48:29;8.77;;;4.85;;
61709;SDS011;47633;51.494;5.386;2023-01-29T08:50:58;8.40;;;4.90;;
61709;SDS011;47633;51.494;5.386;2023-01-29T08:53:24;8.00;;;4.70;;
61709;SDS011;47633;51.494;5.386;2023-01-29T08:55:50;10.10;;;5.30;;
61709;SDS011;47633;51.494;5.386;2023-01-29T08:58:16;8.02;;;5.32;;
61709;SDS011;47633;51.494;5.386;2023-01-29T09:00:41;8.38;;;5.00;;
61709;SDS011;47633;51.494;5.386;2023-01-29T09:03:06;9.75;;;5.07;;
61709;SDS011;47633;51.494;5.386;2023-01-29T09:05:33;8.82;;;5.28;;
61709;SDS011;47633;51.494;5.386;2023-01-29T09:07:58;9.55;;;4.65;;
61709;SDS011;47633;51.494;5.386;2023-01-29T09:10:24;6.72;;;4.53;;
61709;SDS011;47633;51.494;5.386;2023-01-29T09:12:49;7.35;;;4.95;;
61709;SDS011;47633;51.494;5.386;2023-01-29T09:15:15;8.63;;;4.95;;
61709;SDS011;47633;51.494;5.386;2023-01-29T09:17:40;8.10;;;4.57;;
61709;SDS011;47633;51.494;5.386;2023-01-29T09:20:07;8.73;;;5.22;;
61709;SDS011;47633;51.494;5.386;2023-01-29T09:22:33;9.63;;;5.68;;
61709;SDS011;47633;51.494;5.386;2023-01-29T09:24:59;13.60;;;5.40;;
61709;SDS011;47633;51.494;5.386;2023-01-29T09:27:24;10.13;;;5.53;;
61709;SDS011;47633;51.494;5.386;2023-01-29T09:29:49;11.93;;;5.50;;
61709;SDS011;47633;51.494;5.386;2023-01-29T09:32:15;7.95;;;5.38;;
61709;SDS011;47633;51.494;5.386;2023-01-29T09:34:40;9.07;;;5.20;;
61709;SDS011;47633;51.494;5.386;2023-01-29T09:37:05;8.55;;;5.00;;
61709;SDS011;47633;51.494;5.386;2023-01-29T09:39:31;10.40;;;5.32;;
61709;SDS011;47633;51.494;5.386;2023-01-29T09:44:40;10.43;;;4.90;;
61709;SDS011;47633;51.494;5.386;2023-01-29T09:47:13;11.30;;;5.18;;
61709;SDS011;47633;51.494;5.386;2023-01-29T09:49:42;12.35;;;5.38;;
61709;SDS011;47633;51.494;5.386;2023-01-29T10:00:28;10.07;;;4.63;;
61709;SDS011;47633;51.494;5.386;2023-01-29T10:08:50;8.18;;;4.50;;
61709;SDS011;47633;51.494;5.386;2023-01-29T10:14:10;9.98;;;4.45;;
61709;SDS011;47633;51.494;5.386;2023-01-29T10:22:57;9.48;;;4.95;;
61709;SDS011;47633;51.494;5.386;2023-01-29T10:25:45;8.02;;;4.85;;
61709;SDS011;47633;51.494;5.386;2023-01-29T10:28:15;8.95;;;4.50;;
61709;SDS011;47633;51.494;5.386;2023-01-29T10:30:45;8.25;;;4.90;;
61709;SDS011;47633;51.494;5.386;2023-01-29T10:33:16;8.27;;;5.05;;
61709;SDS011;47633;51.494;5.386;2023-01-29T10:35:55;7.78;;;5.28;;
61709;SDS011;47633;51.494;5.386;2023-01-29T10:43:50;8.73;;;4.63;;
61709;SDS011;47633;51.494;5.386;2023-01-29T10:49:14;8.85;;;4.63;;
61709;SDS011;47633;51.494;5.386;2023-01-29T10:54:48;8.00;;;4.82;;
61709;SDS011;47633;51.494;5.386;2023-01-29T10:57:22;8.85;;;5.10;;
61709;SDS011;47633;51.494;5.386;2023-01-29T11:00:16;6.97;;;3.83;;
61709;SDS011;47633;51.494;5.386;2023-01-29T11:02:46;8.90;;;4.60;;
61709;SDS011;47633;51.494;5.386;2023-01-29T11:05:18;7.15;;;4.38;;
61709;SDS011;47633;51.494;5.386;2023-01-29T11:08:06;8.88;;;4.72;;
61709;SDS011;47633;51.494;5.386;2023-01-29T11:10:36;8.18;;;4.13;;
61709;SDS011;47633;51.494;5.386;2023-01-29T11:13:07;9.27;;;4.40;;
61709;SDS011;47633;51.494;5.386;2023-01-29T11:15:38;8.48;;;4.40;;
61709;SDS011;47633;51.494;5.386;2023-01-29T11:18:04;9.38;;;4.35;;
61709;SDS011;47633;51.494;5.386;2023-01-29T11:20:30;11.43;;;4.57;;
61709;SDS011;47633;51.494;5.386;2023-01-29T11:22:56;7.88;;;4.13;;
61709;SDS011;47633;51.494;5.386;2023-01-29T11:25:22;9.55;;;4.32;;
61709;SDS011;47633;51.494;5.386;2023-01-29T11:27:50;7.88;;;4.20;;
61709;SDS011;47633;51.494;5.386;2023-01-29T11:32:43;8.10;;;3.75;;
61709;SDS011;47633;51.494;5.386;2023-01-29T11:37:39;6.53;;;3.80;;
61709;SDS011;47633;51.494;5.386;2023-01-29T11:42:47;6.88;;;3.72;;
61709;SDS011;47633;51.494;5.386;2023-01-29T11:45:26;6.93;;;3.90;;
61709;SDS011;47633;51.494;5.386;2023-01-29T11:47:57;9.05;;;4.43;;
61709;SDS011;47633;51.494;5.386;2023-01-29T11:50:27;8.10;;;4.22;;
61709;SDS011;47633;51.494;5.386;2023-01-29T11:52:55;8.55;;;4.40;;
61709;SDS011;47633;51.494;5.386;2023-01-29T11:55:27;8.93;;;4.68;;
61709;SDS011;47633;51.494;5.386;2023-01-29T12:00:26;9.82;;;4.90;;
61709;SDS011;47633;51.494;5.386;2023-01-29T12:03:29;10.27;;;5.20;;
61709;SDS011;47633;51.494;5.386;2023-01-29T12:05:53;8.27;;;5.25;;
61709;SDS011;47633;51.494;5.386;2023-01-29T12:08:22;10.55;;;4.68;;
61709;SDS011;47633;51.494;5.386;2023-01-29T12:10:49;8.25;;;4.10;;
61709;SDS011;47633;51.494;5.386;2023-01-29T12:15:46;9.27;;;3.95;;
61709;SDS011;47633;51.494;5.386;2023-01-29T12:18:26;7.95;;;4.00;;
61709;SDS011;47633;51.494;5.386;2023-01-29T12:21:03;8.07;;;3.92;;
61709;SDS011;47633;51.494;5.386;2023-01-29T12:26:24;6.47;;;3.60;;
61709;SDS011;47633;51.494;5.386;2023-01-29T12:31:59;6.97;;;4.05;;
61709;SDS011;47633;51.494;5.386;2023-01-29T12:34:51;10.60;;;4.30;;
61709;SDS011;47633;51.494;5.386;2023-01-29T12:39:47;6.43;;;4.32;;
61709;SDS011;47633;51.494;5.386;2023-01-29T12:42:15;9.05;;;4.30;;
61709;SDS011;47633;51.494;5.386;2023-01-29T12:44:45;7.32;;;3.95;;
61709;SDS011;47633;51.494;5.386;2023-01-29T12:47:25;9.40;;;4.25;;
61709;SDS011;47633;51.494;5.386;2023-01-29T12:49:56;8.07;;;4.68;;
61709;SDS011;47633;51.494;5.386;2023-01-29T12:52:37;8.02;;;4.18;;
61709;SDS011;47633;51.494;5.386;2023-01-29T12:55:27;10.23;;;4.82;;
61709;SDS011;47633;51.494;5.386;2023-01-29T12:58:10;8.88;;;4.35;;
61709;SDS011;47633;51.494;5.386;2023-01-29T13:00:39;5.90;;;3.65;;
61709;SDS011;47633;51.494;5.386;2023-01-29T13:08:25;9.95;;;3.95;;
61709;SDS011;47633;51.494;5.386;2023-01-29T13:10:54;7.55;;;3.67;;
61709;SDS011;47633;51.494;5.386;2023-01-29T13:16:16;9.43;;;4.22;;
61709;SDS011;47633;51.494;5.386;2023-01-29T13:18:56;5.88;;;3.28;;
61709;SDS011;47633;51.494;5.386;2023-01-29T13:21:30;7.82;;;3.83;;
61709;SDS011;47633;51.494;5.386;2023-01-29T13:24:01;6.03;;;3.40;;
61709;SDS011;47633;51.494;5.386;2023-01-29T13:26:29;8.98;;;4.35;;
61709;SDS011;47633;51.494;5.386;2023-01-29T13:28:55;8.63;;;4.63;;
61709;SDS011;47633;51.494;5.386;2023-01-29T13:31:23;7.82;;;4.10;;
61709;SDS011;47633;51.494;5.386;2023-01-29T13:33:54;8.40;;;3.90;;
61709;SDS011;47633;51.494;5.386;2023-01-29T13:36:24;8.70;;;3.90;;
61709;SDS011;47633;51.494;5.386;2023-01-29T13:39:00;7.70;;;3.67;;
61709;SDS011;47633;51.494;5.386;2023-01-29T13:41:32;5.82;;;3.30;;
61709;SDS011;47633;51.494;5.386;2023-01-29T13:44:01;7.97;;;3.53;;
61709;SDS011;47633;51.494;5.386;2023-01-29T13:46:28;6.80;;;3.80;;
61709;SDS011;47633;51.494;5.386;2023-01-29T13:48:56;10.85;;;3.63;;
61709;SDS011;47633;51.494;5.386;2023-01-29T13:51:32;6.60;;;3.55;;
61709;SDS011;47633;51.494;5.386;2023-01-29T13:54:07;7.40;;;3.67;;
61709;SDS011;47633;51.494;5.386;2023-01-29T13:56:43;7.10;;;3.67;;
61709;SDS011;47633;51.494;5.386;2023-01-29T13:59:24;7.10;;;3.72;;
61709;SDS011;47633;51.494;5.386;2023-01-29T14:02:20;9.48;;;4.57;;
61709;SDS011;47633;51.494;5.386;2023-01-29T14:04:48;8.02;;;4.07;;
61709;SDS011;47633;51.494;5.386;2023-01-29T14:07:47;7.03;;;3.90;;
61709;SDS011;47633;51.494;5.386;2023-01-29T14:10:18;8.13;;;4.15;;
61709;SDS011;47633;51.494;5.386;2023-01-29T14:12:45;8.20;;;4.80;;
61709;SDS011;47633;51.494;5.386;2023-01-29T14:15:22;6.43;;;3.75;;
61709;SDS011;47633;51.494;5.386;2023-01-29T14:23:21;7.18;;;4.55;;
61709;SDS011;47633;51.494;5.386;2023-01-29T14:26:17;9.95;;;4.97;;
61709;SDS011;47633;51.494;5.386;2023-01-29T14:29:01;9.02;;;4.47;;
61709;SDS011;47633;51.494;5.386;2023-01-29T14:34:30;6.72;;;3.85;;
61709;SDS011;47633;51.494;5.386;2023-01-29T14:37:00;8.52;;;4.55;;
61709;SDS011;47633;51.494;5.386;2023-01-29T14:39:46;6.80;;;4.18;;
61709;SDS011;47633;51.494;5.386;2023-01-29T14:42:23;8.55;;;4.13;;
61709;SDS011;47633;51.494;5.386;2023-01-29T14:44:59;8.82;;;4.65;;
61709;SDS011;47633;51.494;5.386;2023-01-29T14:50:00;10.33;;;4.97;;
61709;SDS011;47633;51.494;5.386;2023-01-29T14:52:44;7.68;;;5.47;;
61709;SDS011;47633;51.494;5.386;2023-01-29T14:55:18;10.43;;;5.03;;
61709;SDS011;47633;51.494;5.386;2023-01-29T14:57:53;8.93;;;4.93;;
61709;SDS011;47633;51.494;5.386;2023-01-29T15:00:24;8.93;;;5.45;;
61709;SDS011;47633;51.494;5.386;2023-01-29T15:02:52;8.45;;;5.05;;
61709;SDS011;47633;51.494;5.386;2023-01-29T15:05:21;8.73;;;5.03;;
61709;SDS011;47633;51.494;5.386;2023-01-29T15:07:57;10.23;;;5.10;;
61709;SDS011;47633;51.494;5.386;2023-01-29T15:10:37;9.30;;;5.20;;
61709;SDS011;47633;51.494;5.386;2023-01-29T15:15:42;8.50;;;4.88;;
61709;SDS011;47633;51.494;5.386;2023-01-29T15:18:12;11.40;;;4.80;;
61709;SDS011;47633;51.494;5.386;2023-01-29T15:20:45;9.18;;;4.63;;
61709;SDS011;47633;51.494;5.386;2023-01-29T15:23:27;9.15;;;5.30;;
61709;SDS011;47633;51.494;5.386;2023-01-29T15:25:56;11.73;;;6.25;;
61709;SDS011;47633;51.494;5.386;2023-01-29T15:28:28;12.60;;;5.60;;
61709;SDS011;47633;51.494;5.386;2023-01-29T15:30:56;16.25;;;6.40;;
61709;SDS011;47633;51.494;5.386;2023-01-29T15:33:23;13.02;;;6.15;;
61709;SDS011;47633;51.494;5.386;2023-01-29T15:35:49;15.30;;;6.10;;
61709;SDS011;47633;51.494;5.386;2023-01-29T15:38:21;15.63;;;6.55;;
61709;SDS011;47633;51.494;5.386;2023-01-29T15:40:53;12.75;;;5.70;;
61709;SDS011;47633;51.494;5.386;2023-01-29T15:43:24;16.25;;;6.10;;
61709;SDS011;47633;51.494;5.386;2023-01-29T15:45:59;17.48;;;5.72;;
61709;SDS011;47633;51.494;5.386;2023-01-29T15:48:30;14.23;;;5.85;;
61709;SDS011;47633;51.494;5.386;2023-01-29T15:50:58;12.50;;;5.38;;
61709;SDS011;47633;51.494;5.386;2023-01-29T15:53:29;10.52;;;4.75;;
61709;SDS011;47633;51.494;5.386;2023-01-29T15:55:59;12.70;;;5.30;;
61709;SDS011;47633;51.494;5.386;2023-01-29T15:58:27;15.68;;;6.10;;
61709;SDS011;47633;51.494;5.386;2023-01-29T16:00:55;12.05;;;4.50;;
61709;SDS011;47633;51.494;5.386;2023-01-29T16:03:23;12.88;;;5.30;;
61709;SDS011;47633;51.494;5.386;2023-01-29T16:05:52;10.88;;;4.70;;
61709;SDS011;47633;51.494;5.386;2023-01-29T16:08:18;10.65;;;4.40;;
61709;SDS011;47633;51.494;5.386;2023-01-29T16:10:45;10.88;;;4.80;;
61709;SDS011;47633;51.494;5.386;2023-01-29T16:13:20;11.00;;;5.22;;
61709;SDS011;47633;51.494;5.386;2023-01-29T16:16:00;12.95;;;5.22;;
61709;SDS011;47633;51.494;5.386;2023-01-29T16:18:31;9.55;;;4.40;;
61709;SDS011;47633;51.494;5.386;2023-01-29T16:21:00;10.93;;;4.82;;
61709;SDS011;47633;51.494;5.386;2023-01-29T16:23:39;10.15;;;4.60;;
61709;SDS011;47633;51.494;5.386;2023-01-29T16:26:07;12.77;;;4.50;;
61709;SDS011;47633;51.494;5.386;2023-01-29T16:28:43;11.30;;;4.68;;
61709;SDS011;47633;51.494;5.386;2023-01-29T16:31:10;10.82;;;4.78;;
61709;SDS011;47633;51.494;5.386;2023-01-29T16:33:38;14.07;;;5.63;;
61709;SDS011;47633;51.494;5.386;2023-01-29T16:36:08;10.90;;;4.75;;
61709;SDS011;47633;51.494;5.386;2023-01-29T16:38:40;9.30;;;4.40;;
61709;SDS011;47633;51.494;5.386;2023-01-29T16:48:44;11.20;;;4.75;;
61709;SDS011;47633;51.494;5.386;2023-01-29T16:51:12;8.93;;;4.22;;
61709;SDS011;47633;51.494;5.386;2023-01-29T16:53:51;8.48;;;3.83;;
61709;SDS011;47633;51.494;5.386;2023-01-29T16:56:21;7.55;;;3.60;;
61709;SDS011;47633;51.494;5.386;2023-01-29T16:58:50;8.57;;;4.03;;
61709;SDS011;47633;51.494;5.386;2023-01-29T17:01:17;9.23;;;4.18;;
61709;SDS011;47633;51.494;5.386;2023-01-29T17:03:44;7.43;;;3.78;;
61709;SDS011;47633;51.494;5.386;2023-01-29T17:06:22;9.32;;;3.90;;
61709;SDS011;47633;51.494;5.386;2023-01-29T17:08:50;6.82;;;3.63;;
61709;SDS011;47633;51.494;5.386;2023-01-29T17:11:22;8.88;;;3.83;;
61709;SDS011;47633;51.494;5.386;2023-01-29T17:13:56;8.57;;;3.80;;
61709;SDS011;47633;51.494;5.386;2023-01-29T17:16:23;6.90;;;3.38;;
61709;SDS011;47633;51.494;5.386;2023-01-29T17:18:51;7.50;;;3.72;;
61709;SDS011;47633;51.494;5.386;2023-01-29T17:21:16;8.52;;;3.33;;
61709;SDS011;47633;51.494;5.386;2023-01-29T17:23:42;9.52;;;3.70;;
61709;SDS011;47633;51.494;5.386;2023-01-29T17:26:08;8.43;;;3.83;;
61709;SDS011;47633;51.494;5.386;2023-01-29T17:28:37;6.78;;;3.38;;
61709;SDS011;47633;51.494;5.386;2023-01-29T17:31:03;9.10;;;3.35;;